createdAt,value
2024-02-16T00:02:08.354Z,98.42
2024-02-16T00:04:36.694Z,98.42
2024-02-16T00:07:05.362Z,98.53
2024-02-16T00:09:34.546Z,98.36
2024-02-16T00:12:04.901Z,98.23
2024-02-16T00:14:33.436Z,99.10
2024-02-16T00:17:02.285Z,98.17
2024-02-16T00:19:30.623Z,98.33
2024-02-16T00:21:59.131Z,98.46
2024-02-16T00:24:27.605Z,98.52
2024-02-16T00:26:56.243Z,97.77
2024-02-16T00:29:26.319Z,97.70
2024-02-16T00:31:54.950Z,98.21
2024-02-16T00:34:23.973Z,97.85
2024-02-16T00:36:53.253Z,97.38
2024-02-16T00:39:23.010Z,97.65
2024-02-16T00:41:52.094Z,97.45
2024-02-16T00:44:20.944Z,97.64
2024-02-16T00:46:50.634Z,96.98
2024-02-16T00:49:19.303Z,97.67
2024-02-16T00:51:48.333Z,97.13
2024-02-16T00:54:17.138Z,97.26
2024-02-16T00:56:46.120Z,96.69
2024-02-16T00:59:14.588Z,97.13
2024-02-16T01:01:43.091Z,96.54
2024-02-16T01:04:12.961Z,96.46
2024-02-16T01:06:41.389Z,96.61
2024-02-16T01:09:10.066Z,96.24
2024-02-16T01:11:38.515Z,96.17
2024-02-16T01:14:06.935Z,96.62
2024-02-16T01:16:36.781Z,96.07
2024-02-16T01:19:07.801Z,96.17
2024-02-16T01:21:37.776Z,96.50
2024-02-16T01:24:06.884Z,96.42
2024-02-16T01:26:35.330Z,96.30
2024-02-16T01:29:03.907Z,95.77
2024-02-16T01:31:33.249Z,95.79
2024-02-16T01:34:02.482Z,95.99
2024-02-16T01:36:31.115Z,96.21
2024-02-16T01:39:01.042Z,96.19
2024-02-16T01:41:29.806Z,95.99
2024-02-16T01:43:58.392Z,96.12
2024-02-16T01:46:27.489Z,96.29
2024-02-16T01:48:56.586Z,96.31
2024-02-16T01:51:27.257Z,96.09
2024-02-16T01:53:57.013Z,95.81
2024-02-16T01:56:27.869Z,95.92
2024-02-16T01:58:56.209Z,95.95
2024-02-16T02:01:24.791Z,96.23
2024-02-16T02:03:53.430Z,96.16
2024-02-16T02:06:22.764Z,96.07
2024-02-16T02:08:51.408Z,95.99
2024-02-16T02:11:19.935Z,96.24
2024-02-16T02:13:49.653Z,96.18
2024-02-16T02:16:19.392Z,96.14
2024-02-16T02:18:48.335Z,95.91
2024-02-16T02:21:19.196Z,95.91
2024-02-16T02:23:49.148Z,96.31
2024-02-16T02:26:19.011Z,96.20
2024-02-16T02:28:47.598Z,96.01
2024-02-16T02:31:16.291Z,96.21
2024-02-16T02:33:44.813Z,95.95
2024-02-16T02:36:13.357Z,96.24
2024-02-16T02:38:42.758Z,96.29
2024-02-16T02:41:12.911Z,96.13
2024-02-16T02:43:41.413Z,95.87
2024-02-16T02:46:10.052Z,95.63
2024-02-16T02:48:38.631Z,96.11
2024-02-16T02:51:07.242Z,96.27
2024-02-16T02:53:35.592Z,96.31
2024-02-16T02:56:04.033Z,96.09
2024-02-16T02:58:33.887Z,96.14
2024-02-16T03:01:02.868Z,96.02
2024-02-16T03:03:31.757Z,96.05
2024-02-16T03:06:00.233Z,96.05
2024-02-16T03:08:28.818Z,96.14
2024-02-16T03:10:57.201Z,96.15
2024-02-16T03:13:25.459Z,96.04
2024-02-16T03:15:55.393Z,95.99
2024-02-16T03:18:24.376Z,96.15
2024-02-16T03:20:52.972Z,95.94
2024-02-16T03:23:21.429Z,95.89
2024-02-16T03:25:49.694Z,95.89
2024-02-16T03:28:18.638Z,95.61
2024-02-16T03:30:47.794Z,96.05
2024-02-16T03:33:17.777Z,96.02
2024-02-16T03:35:46.287Z,95.62
2024-02-16T03:38:14.903Z,95.91
2024-02-16T03:40:43.384Z,95.78
2024-02-16T03:43:13.149Z,95.65
2024-02-16T03:45:41.654Z,95.51
2024-02-16T03:48:10.426Z,95.63
2024-02-16T03:50:40.467Z,95.59
2024-02-16T03:53:08.751Z,95.62
2024-02-16T03:55:37.787Z,94.96
2024-02-16T03:58:06.757Z,95.27
2024-02-16T04:00:35.780Z,95.27
2024-02-16T04:03:05.725Z,95.00
2024-02-16T04:05:36.077Z,95.28
2024-02-16T04:08:07.538Z,95.50
2024-02-16T04:10:36.812Z,95.50
2024-02-16T04:13:05.882Z,94.92
2024-02-16T04:15:34.332Z,94.50
2024-02-16T04:18:03.135Z,95.07
2024-02-16T04:20:31.701Z,94.78
2024-02-16T04:23:00.084Z,95.16
2024-02-16T04:25:29.891Z,94.85
2024-02-16T04:27:58.354Z,94.68
2024-02-16T04:30:26.732Z,94.76
2024-02-16T04:32:57.158Z,94.55
2024-02-16T04:35:25.646Z,95.01
2024-02-16T04:37:54.028Z,94.33
2024-02-16T04:40:22.419Z,94.67
2024-02-16T04:42:52.102Z,94.26
2024-02-16T04:45:21.374Z,94.27
2024-02-16T04:47:50.165Z,94.36
2024-02-16T04:50:18.797Z,94.62
2024-02-16T04:52:47.389Z,94.55
2024-02-16T04:55:16.240Z,94.38
2024-02-16T04:57:44.506Z,94.45
2024-02-16T05:00:16.496Z,94.28
2024-02-16T05:02:44.954Z,94.28
2024-02-16T05:05:13.578Z,94.48
2024-02-16T05:07:42.366Z,94.28
2024-02-16T05:10:12.501Z,94.68
2024-02-16T05:12:42.614Z,94.48
2024-02-16T05:15:11.825Z,94.37
2024-02-16T05:17:42.134Z,94.43
2024-02-16T05:20:16.477Z,94.47
2024-02-16T05:22:47.724Z,94.21
2024-02-16T05:25:17.168Z,93.97
2024-02-16T05:27:46.189Z,94.21
2024-02-16T05:30:16.906Z,93.92
2024-02-16T05:32:54.419Z,93.94
2024-02-16T05:35:22.860Z,93.93
2024-02-16T05:37:52.762Z,93.80
2024-02-16T05:40:23.317Z,93.66
2024-02-16T05:42:53.082Z,93.96
2024-02-16T05:45:22.539Z,93.62
2024-02-16T05:47:53.985Z,93.48
2024-02-16T05:50:24.728Z,93.38
2024-02-16T05:52:53.305Z,93.36
2024-02-16T05:55:21.751Z,93.23
2024-02-16T05:57:50.155Z,93.17
2024-02-16T06:00:22.515Z,92.75
2024-02-16T06:02:53.386Z,93.50
2024-02-16T06:05:22.407Z,93.08
2024-02-16T06:07:51.003Z,93.45
2024-02-16T06:10:19.651Z,93.64
2024-02-16T06:12:48.808Z,93.22
2024-02-16T06:15:18.001Z,93.53
2024-02-16T06:17:46.438Z,93.04
2024-02-16T06:20:18.932Z,93.57
2024-02-16T06:22:49.420Z,93.46
2024-02-16T06:25:18.583Z,93.35
2024-02-16T06:27:47.589Z,93.13
2024-02-16T06:30:17.339Z,93.57
2024-02-16T06:32:45.969Z,93.38
2024-02-16T06:35:16.360Z,93.50
2024-02-16T06:37:44.730Z,93.67
2024-02-16T06:40:14.419Z,93.35
2024-02-16T06:42:43.046Z,93.12
2024-02-16T06:45:12.735Z,93.30
2024-02-16T06:47:41.838Z,93.50
2024-02-16T06:50:11.484Z,93.43
2024-02-16T06:52:41.907Z,93.28
2024-02-16T06:55:11.144Z,93.73
2024-02-16T06:57:39.881Z,93.54
2024-02-16T07:00:11.620Z,93.43
2024-02-16T07:02:40.254Z,93.95
2024-02-16T07:05:09.783Z,93.53
2024-02-16T07:07:38.275Z,94.09
2024-02-16T07:10:14.938Z,93.99
2024-02-16T07:12:44.073Z,93.72
2024-02-16T07:15:13.716Z,93.08
2024-02-16T07:17:42.617Z,93.46
2024-02-16T07:20:12.180Z,93.45
2024-02-16T07:22:40.694Z,93.45
2024-02-16T07:25:13.568Z,93.33
2024-02-16T07:27:43.032Z,92.96
2024-02-16T07:30:17.023Z,93.16
2024-02-16T07:32:51.766Z,93.03
2024-02-16T07:35:22.676Z,92.88
2024-02-16T07:37:53.085Z,92.39
2024-02-16T07:40:23.297Z,92.57
2024-02-16T07:42:51.703Z,92.60
2024-02-16T07:45:20.198Z,92.70
2024-02-16T07:47:49.185Z,92.25
2024-02-16T07:50:21.413Z,92.74
2024-02-16T07:52:50.933Z,92.44
2024-02-16T07:55:19.553Z,92.17
2024-02-16T07:57:49.949Z,92.18
2024-02-16T08:00:19.524Z,92.17
2024-02-16T08:02:48.462Z,91.66
2024-02-16T08:05:20.859Z,92.29
2024-02-16T08:07:49.810Z,91.65
2024-02-16T08:10:22.040Z,91.97
2024-02-16T08:12:51.998Z,92.02
2024-02-16T08:15:25.026Z,91.82
2024-02-16T08:17:54.942Z,91.89
2024-02-16T08:20:24.067Z,91.71
2024-02-16T08:22:52.629Z,91.36
2024-02-16T08:25:21.410Z,91.11
2024-02-16T08:27:52.072Z,90.86
2024-02-16T08:30:20.770Z,91.11
2024-02-16T08:32:49.463Z,91.19
2024-02-16T08:35:20.114Z,90.62
2024-02-16T08:37:49.010Z,90.74
2024-02-16T08:40:17.653Z,90.61
2024-02-16T08:42:46.325Z,90.48
2024-02-16T08:45:18.792Z,90.40
2024-02-16T08:47:51.507Z,90.38
2024-02-16T08:50:21.541Z,90.69
2024-02-16T08:52:49.879Z,90.07
2024-02-16T08:55:18.724Z,90.49
2024-02-16T08:57:47.877Z,89.92
2024-02-16T09:00:19.220Z,89.76
2024-02-16T09:02:48.586Z,90.02
2024-02-16T09:05:17.336Z,90.19
2024-02-16T09:07:46.220Z,89.57
2024-02-16T09:10:15.751Z,89.53
2024-02-16T09:12:44.584Z,89.78
2024-02-16T09:15:14.164Z,89.86
2024-02-16T09:17:44.739Z,89.61
2024-02-16T09:20:14.419Z,89.37
2024-02-16T09:22:47.241Z,89.38
2024-02-16T09:25:16.515Z,89.19
2024-02-16T09:27:46.738Z,89.33
2024-02-16T09:30:16.962Z,88.96
2024-02-16T09:32:47.262Z,88.79
2024-02-16T09:35:15.766Z,89.24
2024-02-16T09:37:44.359Z,89.05
2024-02-16T09:40:15.259Z,88.52
2024-02-16T09:42:43.928Z,88.24
2024-02-16T09:45:15.308Z,88.40
2024-02-16T09:47:54.387Z,88.07
2024-02-16T09:50:29.701Z,88.63
2024-02-16T09:52:59.338Z,88.06
2024-02-16T09:55:27.905Z,87.82
2024-02-16T09:58:02.199Z,88.07
2024-02-16T10:00:30.777Z,87.85
2024-02-16T10:03:01.088Z,87.54
2024-02-16T10:05:31.979Z,87.19
2024-02-16T10:08:01.153Z,87.44
2024-02-16T10:10:32.179Z,87.18
2024-02-16T10:13:05.195Z,87.02
2024-02-16T10:15:34.157Z,86.89
2024-02-16T10:18:05.693Z,86.71
2024-02-16T10:20:36.681Z,86.36
2024-02-16T10:23:09.512Z,86.43
2024-02-16T10:25:39.438Z,86.19
2024-02-16T10:28:11.402Z,86.16
2024-02-16T10:30:42.166Z,85.98
2024-02-16T10:33:13.667Z,86.26
2024-02-16T10:35:43.328Z,85.84
2024-02-16T10:38:13.311Z,85.95
2024-02-16T10:40:47.396Z,85.56
2024-02-16T10:43:17.395Z,85.40
2024-02-16T10:45:46.602Z,85.31
2024-02-16T10:48:16.851Z,85.00
2024-02-16T10:50:46.727Z,84.79
2024-02-16T10:53:22.379Z,84.46
2024-02-16T10:55:51.822Z,84.58
2024-02-16T10:58:21.077Z,84.66
2024-02-16T11:00:53.870Z,84.43
2024-02-16T11:03:28.549Z,84.88
2024-02-16T11:05:59.832Z,84.79
2024-02-16T11:08:29.799Z,84.71
2024-02-16T11:11:00.675Z,84.72
2024-02-16T11:13:30.976Z,85.12
2024-02-16T11:16:00.927Z,84.96
2024-02-16T11:18:32.253Z,85.02
2024-02-16T11:21:03.638Z,85.09
2024-02-16T11:23:33.547Z,85.11
2024-02-16T11:26:07.518Z,85.47
2024-02-16T11:28:37.283Z,85.18
2024-02-16T11:31:06.447Z,85.48
2024-02-16T11:33:36.846Z,85.51
2024-02-16T11:36:09.639Z,86.09
2024-02-16T11:38:38.323Z,86.39
2024-02-16T11:41:09.219Z,86.63
2024-02-16T11:43:37.993Z,86.82
2024-02-16T11:46:17.514Z,86.98
2024-02-16T11:48:49.524Z,87.06
2024-02-16T11:51:19.376Z,87.95
2024-02-16T11:53:57.669Z,88.05
2024-02-16T11:56:26.631Z,88.72
2024-02-16T11:58:55.758Z,88.97
2024-02-16T12:01:24.196Z,90.24
2024-02-16T12:03:53.992Z,91.63
2024-02-16T12:06:24.002Z,92.66
2024-02-16T12:08:54.882Z,93.01
2024-02-16T12:11:24.218Z,94.02
2024-02-16T12:13:52.638Z,93.83
2024-02-16T12:16:22.449Z,94.18
2024-02-16T12:18:51.135Z,94.94
2024-02-16T12:21:21.995Z,95.60
2024-02-16T12:23:51.019Z,95.65
2024-02-16T12:26:19.714Z,96.28
2024-02-16T12:28:48.953Z,96.11
2024-02-16T12:31:21.833Z,96.46
2024-02-16T12:33:50.620Z,96.79
2024-02-16T12:36:21.268Z,96.77
2024-02-16T12:38:49.746Z,96.92
2024-02-16T12:41:18.971Z,97.05
2024-02-16T12:43:47.632Z,97.64
2024-02-16T12:46:16.472Z,97.50
2024-02-16T12:48:47.539Z,97.76
2024-02-16T12:51:18.044Z,98.45
2024-02-16T12:53:47.826Z,97.93
2024-02-16T12:56:16.542Z,98.00
2024-02-16T12:58:45.025Z,98.08
2024-02-16T13:01:20.417Z,98.92
2024-02-16T13:03:54.553Z,99.02
2024-02-16T13:06:26.742Z,99.08
2024-02-16T13:08:58.813Z,99.14
2024-02-16T13:11:27.348Z,99.19
2024-02-16T13:13:55.763Z,99.28
2024-02-16T13:16:26.313Z,99.78
2024-02-16T13:18:54.918Z,99.64
2024-02-16T13:21:23.862Z,99.58
2024-02-16T13:23:52.246Z,99.63
2024-02-16T13:26:21.952Z,99.74
2024-02-16T13:28:51.685Z,100.00
2024-02-16T13:31:20.087Z,100.00
2024-02-16T13:33:49.004Z,100.00
2024-02-16T13:36:17.677Z,100.00
2024-02-16T13:38:46.349Z,100.00
2024-02-16T13:41:17.694Z,100.00
2024-02-16T13:43:49.672Z,100.00
2024-02-16T13:46:18.760Z,100.00
2024-02-16T13:48:47.714Z,100.00
2024-02-16T13:51:16.431Z,100.00
2024-02-16T13:53:44.928Z,100.00
2024-02-16T13:56:13.422Z,100.00
2024-02-16T13:58:42.697Z,100.00
2024-02-16T14:01:12.722Z,100.00
2024-02-16T14:03:41.655Z,100.00
2024-02-16T14:06:11.987Z,100.00
2024-02-16T14:08:41.346Z,100.00
2024-02-16T14:11:11.339Z,100.00
2024-02-16T14:13:40.327Z,100.00
2024-02-16T14:16:11.452Z,100.00
2024-02-16T14:18:41.512Z,100.00
2024-02-16T14:21:11.446Z,100.00
2024-02-16T14:23:40.083Z,100.00
2024-02-16T14:26:08.793Z,100.00
2024-02-16T14:28:37.105Z,100.00
2024-02-16T14:31:07.458Z,100.00
2024-02-16T14:33:35.980Z,100.00
2024-02-16T14:36:10.286Z,100.00
2024-02-16T14:38:38.864Z,100.00
2024-02-16T14:41:07.186Z,100.00
2024-02-16T14:43:35.666Z,100.00
2024-02-16T14:46:05.514Z,100.00
2024-02-16T14:48:34.183Z,100.00
2024-02-16T14:51:07.870Z,100.00
2024-02-16T14:53:36.466Z,100.00
2024-02-16T14:56:05.555Z,100.00
2024-02-16T14:58:34.958Z,100.00
2024-02-16T15:01:03.913Z,100.00
2024-02-16T15:03:34.031Z,100.00
2024-02-16T15:06:02.882Z,100.00
2024-02-16T15:08:32.776Z,100.00
2024-02-16T15:11:03.142Z,100.00
2024-02-16T15:13:32.120Z,100.00
2024-02-16T15:16:01.078Z,100.00
2024-02-16T15:18:29.609Z,100.00
2024-02-16T15:20:58.359Z,100.00
2024-02-16T15:23:26.757Z,100.00
2024-02-16T15:25:56.590Z,100.00
2024-02-16T15:28:25.069Z,100.00
2024-02-16T15:30:53.513Z,100.00
2024-02-16T15:33:22.201Z,100.00
2024-02-16T15:35:50.618Z,100.00
2024-02-16T15:38:19.552Z,100.00
2024-02-16T15:40:48.364Z,100.00
2024-02-16T15:43:18.730Z,100.00
2024-02-16T15:45:51.136Z,100.00
2024-02-16T15:48:19.749Z,100.00
2024-02-16T15:50:50.940Z,100.00
2024-02-16T15:53:20.911Z,100.00
2024-02-16T15:55:49.667Z,100.00
2024-02-16T15:58:19.743Z,100.00
2024-02-16T16:00:48.910Z,100.00
2024-02-16T16:03:18.349Z,100.00
2024-02-16T16:05:46.696Z,100.00
2024-02-16T16:08:15.195Z,100.00
2024-02-16T16:10:43.568Z,100.00
2024-02-16T16:13:14.179Z,100.00
2024-02-16T16:15:46.586Z,100.00
2024-02-16T16:18:15.315Z,100.00
2024-02-16T16:20:45.051Z,100.00
2024-02-16T16:23:20.406Z,100.00
2024-02-16T16:25:49.368Z,100.00
2024-02-16T16:28:25.817Z,100.00
2024-02-16T16:30:55.607Z,100.00
2024-02-16T16:33:24.236Z,100.00
2024-02-16T16:35:53.910Z,100.00
2024-02-16T16:38:22.858Z,100.00
2024-02-16T16:40:51.165Z,100.00
2024-02-16T16:43:20.697Z,100.00
2024-02-16T16:45:49.594Z,100.00
2024-02-16T16:48:21.130Z,100.00
2024-02-16T16:50:49.654Z,100.00
2024-02-16T16:53:18.917Z,100.00
2024-02-16T16:55:47.761Z,100.00
2024-02-16T16:58:16.637Z,100.00
2024-02-16T17:00:45.071Z,100.00
2024-02-16T17:03:15.758Z,100.00
2024-02-16T17:05:46.962Z,100.00
2024-02-16T17:08:15.499Z,100.00
2024-02-16T17:10:44.206Z,100.00
2024-02-16T17:13:13.157Z,100.00
2024-02-16T17:15:41.995Z,100.00
2024-02-16T17:18:11.210Z,100.00
2024-02-16T17:20:42.069Z,100.00
2024-02-16T17:23:11.798Z,100.00
2024-02-16T17:25:40.325Z,100.00
2024-02-16T17:28:08.941Z,100.00
2024-02-16T17:30:38.421Z,100.00
2024-02-16T17:33:07.355Z,100.00
2024-02-16T17:35:35.829Z,100.00
2024-02-16T17:38:04.160Z,100.00
2024-02-16T17:40:35.187Z,100.00
2024-02-16T17:43:05.211Z,100.00
2024-02-16T17:45:34.012Z,100.00
2024-02-16T17:48:03.596Z,100.00
2024-02-16T17:50:33.868Z,100.00
2024-02-16T17:53:02.941Z,100.00
2024-02-16T17:55:31.200Z,100.00
2024-02-16T17:58:01.608Z,100.00
2024-02-16T18:00:30.060Z,100.00
2024-02-16T18:02:58.651Z,100.00
2024-02-16T18:05:27.025Z,100.00
2024-02-16T18:07:55.468Z,100.00
2024-02-16T18:10:23.929Z,100.00
2024-02-16T18:12:52.393Z,100.00
2024-02-16T18:15:23.316Z,100.00
2024-02-16T18:17:52.843Z,100.00
2024-02-16T18:20:22.141Z,100.00
2024-02-16T18:22:50.490Z,100.00
2024-02-16T18:25:19.322Z,100.00
2024-02-16T18:27:48.143Z,100.00
2024-02-16T18:30:16.953Z,100.00
2024-02-16T18:32:47.035Z,100.00
2024-02-16T18:35:16.189Z,100.00
2024-02-16T18:37:44.845Z,100.00
2024-02-16T18:40:14.098Z,100.00
2024-02-16T18:42:43.332Z,100.00
2024-02-16T18:45:12.377Z,100.00
2024-02-16T18:47:41.328Z,100.00
2024-02-16T18:50:12.358Z,100.00
2024-02-16T18:52:41.616Z,100.00
2024-02-16T18:55:11.128Z,100.00
2024-02-16T18:57:39.805Z,100.00
2024-02-16T19:00:14.898Z,100.00
2024-02-16T19:02:44.718Z,100.00
2024-02-16T19:05:14.469Z,100.00
2024-02-16T19:07:42.963Z,100.00
2024-02-16T19:10:12.955Z,100.00
2024-02-16T19:12:41.406Z,100.00
2024-02-16T19:15:12.279Z,100.00
2024-02-16T19:17:41.173Z,100.00
2024-02-16T19:20:11.305Z,100.00
2024-02-16T19:22:41.238Z,100.00
2024-02-16T19:25:11.200Z,100.00
2024-02-16T19:27:40.067Z,100.00
2024-02-16T19:30:11.099Z,100.00
2024-02-16T19:32:40.194Z,100.00
2024-02-16T19:35:12.170Z,100.00
2024-02-16T19:37:43.590Z,100.00
2024-02-16T19:40:14.077Z,100.00
2024-02-16T19:42:44.879Z,100.00
2024-02-16T19:45:15.108Z,100.00
2024-02-16T19:47:47.188Z,100.00
2024-02-16T19:50:17.389Z,100.00
2024-02-16T19:52:47.323Z,100.00
2024-02-16T19:55:16.461Z,100.00
2024-02-16T19:57:47.183Z,100.00
2024-02-16T20:00:18.531Z,100.00
2024-02-16T20:02:48.733Z,100.00
2024-02-16T20:05:24.217Z,100.00
2024-02-16T20:07:54.202Z,100.00
2024-02-16T20:10:22.631Z,99.60
2024-02-16T20:12:50.959Z,100.00
2024-02-16T20:15:20.369Z,100.00
2024-02-16T20:17:49.074Z,100.00
2024-02-16T20:20:23.422Z,99.60
2024-02-16T20:22:54.218Z,99.87
2024-02-16T20:25:23.327Z,99.79
2024-02-16T20:27:51.635Z,99.98
2024-02-16T20:30:23.214Z,99.87
2024-02-16T20:32:55.171Z,100.00
2024-02-16T20:35:23.974Z,100.00
2024-02-16T20:37:54.342Z,100.00
2024-02-16T20:40:23.752Z,100.00
2024-02-16T20:42:52.088Z,100.00
2024-02-16T20:45:23.775Z,100.00
2024-02-16T20:47:52.563Z,100.00
2024-02-16T20:50:23.123Z,100.00
2024-02-16T20:52:54.434Z,100.00
2024-02-16T20:55:22.926Z,100.00
2024-02-16T20:57:51.291Z,100.00
2024-02-16T21:00:24.789Z,100.00
2024-02-16T21:02:54.633Z,100.00
2024-02-16T21:05:23.680Z,100.00
2024-02-16T21:07:53.974Z,100.00
2024-02-16T21:10:22.394Z,100.00
2024-02-16T21:12:50.769Z,100.00
2024-02-16T21:15:19.663Z,100.00
2024-02-16T21:17:48.377Z,100.00
2024-02-16T21:20:17.083Z,100.00
2024-02-16T21:22:45.844Z,100.00
2024-02-16T21:25:15.942Z,100.00
2024-02-16T21:27:44.503Z,100.00
2024-02-16T21:30:14.204Z,100.00
2024-02-16T21:32:43.273Z,100.00
2024-02-16T21:35:14.133Z,100.00
2024-02-16T21:37:43.178Z,100.00
2024-02-16T21:40:15.709Z,100.00
2024-02-16T21:42:44.084Z,100.00
2024-02-16T21:45:12.956Z,100.00
2024-02-16T21:47:41.369Z,100.00
2024-02-16T21:50:11.415Z,100.00
2024-02-16T21:52:40.120Z,100.00
2024-02-16T21:55:11.572Z,100.00
2024-02-16T21:57:44.140Z,100.00
2024-02-16T22:00:13.867Z,100.00
2024-02-16T22:02:42.845Z,100.00
2024-02-16T22:05:11.379Z,100.00
2024-02-16T22:07:40.233Z,100.00
2024-02-16T22:10:10.829Z,100.00
2024-02-16T22:12:41.405Z,100.00
2024-02-16T22:15:10.715Z,100.00
2024-02-16T22:17:39.681Z,100.00
2024-02-16T22:20:09.819Z,100.00
2024-02-16T22:22:38.088Z,100.00
2024-02-16T22:25:07.519Z,100.00
2024-02-16T22:27:35.836Z,100.00
2024-02-16T22:30:07.222Z,100.00
2024-02-16T22:32:35.582Z,100.00
2024-02-16T22:35:06.475Z,100.00
2024-02-16T22:37:34.934Z,100.00
2024-02-16T22:40:06.081Z,100.00
2024-02-16T22:42:34.600Z,100.00
2024-02-16T22:45:03.344Z,100.00
2024-02-16T22:47:34.012Z,100.00
2024-02-16T22:50:02.830Z,100.00
2024-02-16T22:52:31.202Z,100.00
2024-02-16T22:54:59.906Z,100.00
2024-02-16T22:57:28.282Z,100.00
2024-02-16T22:59:56.552Z,100.00
2024-02-16T23:02:24.977Z,100.00
2024-02-16T23:04:56.202Z,100.00
2024-02-16T23:07:25.071Z,100.00
2024-02-16T23:09:53.643Z,100.00
2024-02-16T23:12:24.968Z,100.00
2024-02-16T23:14:58.500Z,100.00
2024-02-16T23:17:27.184Z,100.00
2024-02-16T23:19:56.862Z,100.00
2024-02-16T23:22:25.430Z,100.00
2024-02-16T23:24:53.887Z,100.00
2024-02-16T23:27:25.842Z,100.00
2024-02-16T23:29:54.393Z,100.00
2024-02-16T23:32:22.955Z,100.00
2024-02-16T23:34:51.434Z,100.00
2024-02-16T23:37:21.139Z,100.00
2024-02-16T23:39:49.506Z,100.00
2024-02-16T23:42:18.352Z,100.00
2024-02-16T23:44:47.047Z,100.00
2024-02-16T23:47:16.028Z,100.00
2024-02-16T23:49:46.027Z,100.00
2024-02-16T23:52:14.316Z,100.00
2024-02-16T23:54:44.509Z,100.00
2024-02-16T23:57:12.940Z,100.00
2024-02-16T23:59:41.278Z,100.00
